sensor_id;sensor_type;location;lat;lon;timestamp;pressure;altitude;pressure_sealevel;temperature;humidity
47742;BME280;33504;52.066;6.096;2023-05-10T00:02:07;100750.06;;;16.41;51.15
47742;BME280;33504;52.066;6.096;2023-05-10T00:04:34;100747.83;;;16.60;50.98
47742;BME280;33504;52.066;6.096;2023-05-10T00:07:01;100747.13;;;16.36;51.03
47742;BME280;33504;52.066;6.096;2023-05-10T00:09:28;100745.34;;;16.58;51.10
47742;BME280;33504;52.066;6.096;2023-05-10T00:11:55;100743.00;;;16.57;51.04
47742;BME280;33504;52.066;6.096;2023-05-10T00:14:22;100739.49;;;16.58;51.03
47742;BME280;33504;52.066;6.096;2023-05-10T00:16:49;100738.72;;;16.39;51.00
47742;BME280;33504;52.066;6.096;2023-05-10T00:19:16;100738.06;;;16.63;51.16
47742;BME280;33504;52.066;6.096;2023-05-10T00:21:43;100737.91;;;16.61;51.00
47742;BME280;33504;52.066;6.096;2023-05-10T00:24:10;100736.66;;;16.12;50.98
47742;BME280;33504;52.066;6.096;2023-05-10T00:26:37;100738.43;;;16.60;50.90
47742;BME280;33504;52.066;6.096;2023-05-10T00:29:04;100739.14;;;16.63;50.97
47742;BME280;33504;52.066;6.096;2023-05-10T00:31:31;100738.31;;;16.40;51.04
47742;BME280;33504;52.066;6.096;2023-05-10T00:33:58;100735.44;;;16.66;51.15
47742;BME280;33504;52.066;6.096;2023-05-10T00:36:26;100734.45;;;16.44;51.01
47742;BME280;33504;52.066;6.096;2023-05-10T00:38:52;100734.66;;;16.41;51.02
47742;BME280;33504;52.066;6.096;2023-05-10T00:41:19;100732.78;;;16.42;51.19
47742;BME280;33504;52.066;6.096;2023-05-10T00:43:47;100734.01;;;16.67;51.17
47742;BME280;33504;52.066;6.096;2023-05-10T00:46:14;100733.35;;;16.46;51.19
47742;BME280;33504;52.066;6.096;2023-05-10T00:48:42;100735.24;;;16.68;51.10
47742;BME280;33504;52.066;6.096;2023-05-10T00:51:10;100731.33;;;16.71;51.04
47742;BME280;33504;52.066;6.096;2023-05-10T00:53:37;100730.74;;;16.42;51.15
47742;BME280;33504;52.066;6.096;2023-05-10T00:56:05;100730.36;;;16.66;51.03
47742;BME280;33504;52.066;6.096;2023-05-10T00:58:32;100731.01;;;16.49;51.12
47742;BME280;33504;52.066;6.096;2023-05-10T01:00:59;100733.52;;;16.52;51.08
47742;BME280;33504;52.066;6.096;2023-05-10T01:03:27;100730.85;;;16.53;51.03
47742;BME280;33504;52.066;6.096;2023-05-10T01:05:54;100732.80;;;16.53;51.13
47742;BME280;33504;52.066;6.096;2023-05-10T01:08:21;100730.13;;;16.54;51.22
47742;BME280;33504;52.066;6.096;2023-05-10T01:10:48;100730.41;;;16.33;51.13
47742;BME280;33504;52.066;6.096;2023-05-10T01:13:23;100725.57;;;16.31;51.16
47742;BME280;33504;52.066;6.096;2023-05-10T01:15:56;100726.87;;;16.34;51.25
47742;BME280;33504;52.066;6.096;2023-05-10T01:18:24;100723.15;;;16.36;51.24
47742;BME280;33504;52.066;6.096;2023-05-10T01:21:02;100721.66;;;16.54;51.08
47742;BME280;33504;52.066;6.096;2023-05-10T01:23:45;100723.17;;;16.52;51.14
47742;BME280;33504;52.066;6.096;2023-05-10T01:26:46;100723.45;;;16.52;51.19
47742;BME280;33504;52.066;6.096;2023-05-10T01:29:46;100722.79;;;16.53;51.22
47742;BME280;33504;52.066;6.096;2023-05-10T01:32:26;100724.74;;;16.54;51.13
47742;BME280;33504;52.066;6.096;2023-05-10T01:35:00;100723.43;;;16.55;51.07
47742;BME280;33504;52.066;6.096;2023-05-10T01:37:36;100728.34;;;16.56;51.11
47742;BME280;33504;52.066;6.096;2023-05-10T01:40:14;100728.10;;;16.37;51.18
47742;BME280;33504;52.066;6.096;2023-05-10T01:42:47;100729.51;;;16.56;51.08
47742;BME280;33504;52.066;6.096;2023-05-10T01:45:21;100732.53;;;16.55;51.20
47742;BME280;33504;52.066;6.096;2023-05-10T01:47:57;100735.72;;;16.33;51.16
47742;BME280;33504;52.066;6.096;2023-05-10T01:50:28;100733.43;;;16.29;51.26
47742;BME280;33504;52.066;6.096;2023-05-10T01:52:58;100731.58;;;16.56;51.36
47742;BME280;33504;52.066;6.096;2023-05-10T01:55:29;100730.54;;;16.59;51.28
47742;BME280;33504;52.066;6.096;2023-05-10T01:58:02;100734.76;;;16.60;51.32
47742;BME280;33504;52.066;6.096;2023-05-10T02:00:31;100736.01;;;16.49;51.42
47742;BME280;33504;52.066;6.096;2023-05-10T02:03:00;100738.48;;;16.59;51.46
47742;BME280;33504;52.066;6.096;2023-05-10T02:05:30;100737.48;;;16.37;51.68
47742;BME280;33504;52.066;6.096;2023-05-10T02:07:59;100737.95;;;16.21;51.62
47742;BME280;33504;52.066;6.096;2023-05-10T02:10:28;100735.54;;;16.23;51.59
47742;BME280;33504;52.066;6.096;2023-05-10T02:12:58;100736.45;;;16.45;51.61
47742;BME280;33504;52.066;6.096;2023-05-10T02:15:26;100738.74;;;16.40;51.68
47742;BME280;33504;52.066;6.096;2023-05-10T02:17:55;100741.84;;;16.11;52.17
47742;BME280;33504;52.066;6.096;2023-05-10T02:20:24;100742.89;;;16.26;51.84
47742;BME280;33504;52.066;6.096;2023-05-10T02:22:54;100747.04;;;16.10;51.91
47742;BME280;33504;52.066;6.096;2023-05-10T02:25:23;100746.09;;;16.34;51.86
47742;BME280;33504;52.066;6.096;2023-05-10T02:27:53;100745.77;;;16.22;51.75
47742;BME280;33504;52.066;6.096;2023-05-10T02:30:22;100747.00;;;16.49;51.86
47742;BME280;33504;52.066;6.096;2023-05-10T02:32:51;100746.84;;;16.34;51.79
47742;BME280;33504;52.066;6.096;2023-05-10T02:35:18;100750.91;;;16.62;51.79
47742;BME280;33504;52.066;6.096;2023-05-10T02:37:46;100751.22;;;16.39;51.76
47742;BME280;33504;52.066;6.096;2023-05-10T02:40:15;100750.62;;;16.61;51.70
47742;BME280;33504;52.066;6.096;2023-05-10T02:42:44;100747.47;;;16.61;51.72
47742;BME280;33504;52.066;6.096;2023-05-10T02:45:14;100748.28;;;16.59;51.73
47742;BME280;33504;52.066;6.096;2023-05-10T02:47:42;100751.65;;;16.62;51.71
47742;BME280;33504;52.066;6.096;2023-05-10T02:50:10;100754.24;;;16.59;51.69
47742;BME280;33504;52.066;6.096;2023-05-10T02:52:42;100753.93;;;16.64;51.69
47742;BME280;33504;52.066;6.096;2023-05-10T02:55:13;100752.27;;;16.65;51.74
47742;BME280;33504;52.066;6.096;2023-05-10T02:57:46;100755.73;;;16.43;51.75
47742;BME280;33504;52.066;6.096;2023-05-10T03:00:15;100752.82;;;16.43;51.78
47742;BME280;33504;52.066;6.096;2023-05-10T03:02:42;100756.75;;;16.69;51.79
47742;BME280;33504;52.066;6.096;2023-05-10T03:05:09;100756.84;;;16.48;51.76
47742;BME280;33504;52.066;6.096;2023-05-10T03:07:36;100752.15;;;16.67;51.73
47742;BME280;33504;52.066;6.096;2023-05-10T03:10:05;100752.84;;;16.70;51.76
47742;BME280;33504;52.066;6.096;2023-05-10T03:12:52;100749.88;;;16.66;51.75
47742;BME280;33504;52.066;6.096;2023-05-10T03:15:30;100752.63;;;16.62;51.93
47742;BME280;33504;52.066;6.096;2023-05-10T03:18:04;100753.63;;;16.44;51.88
47742;BME280;33504;52.066;6.096;2023-05-10T03:20:36;100752.48;;;16.39;51.75
47742;BME280;33504;52.066;6.096;2023-05-10T03:23:11;100755.26;;;16.62;51.78
47742;BME280;33504;52.066;6.096;2023-05-10T03:25:40;100759.46;;;16.61;51.80
47742;BME280;33504;52.066;6.096;2023-05-10T03:28:08;100761.25;;;16.52;51.89
47742;BME280;33504;52.066;6.096;2023-05-10T03:30:35;100764.07;;;16.54;51.81
47742;BME280;33504;52.066;6.096;2023-05-10T03:33:05;100765.03;;;16.55;51.80
47742;BME280;33504;52.066;6.096;2023-05-10T03:35:32;100769.04;;;16.54;51.89
47742;BME280;33504;52.066;6.096;2023-05-10T03:37:59;100769.45;;;16.24;51.96
47742;BME280;33504;52.066;6.096;2023-05-10T03:40:27;100774.35;;;16.49;51.99
47742;BME280;33504;52.066;6.096;2023-05-10T03:42:55;100773.78;;;16.50;51.92
47742;BME280;33504;52.066;6.096;2023-05-10T03:45:22;100777.02;;;16.39;52.24
47742;BME280;33504;52.066;6.096;2023-05-10T03:47:49;100779.09;;;16.29;52.12
47742;BME280;33504;52.066;6.096;2023-05-10T03:50:17;100777.31;;;16.35;52.11
47742;BME280;33504;52.066;6.096;2023-05-10T03:52:44;100779.23;;;16.02;52.14
47742;BME280;33504;52.066;6.096;2023-05-10T03:55:11;100784.09;;;16.33;51.85
47742;BME280;33504;52.066;6.096;2023-05-10T03:57:39;100782.36;;;16.36;51.89
47742;BME280;33504;52.066;6.096;2023-05-10T04:00:07;100786.84;;;16.40;51.80
47742;BME280;33504;52.066;6.096;2023-05-10T04:02:34;100789.26;;;16.34;51.81
47742;BME280;33504;52.066;6.096;2023-05-10T04:05:01;100789.31;;;16.60;51.81
47742;BME280;33504;52.066;6.096;2023-05-10T04:07:28;100789.86;;;16.34;51.79
47742;BME280;33504;52.066;6.096;2023-05-10T04:09:55;100792.61;;;16.34;51.78
47742;BME280;33504;52.066;6.096;2023-05-10T04:12:21;100800.76;;;16.29;51.85
47742;BME280;33504;52.066;6.096;2023-05-10T04:14:48;100803.53;;;16.37;51.79
47742;BME280;33504;52.066;6.096;2023-05-10T04:17:15;100802.87;;;16.38;51.78
47742;BME280;33504;52.066;6.096;2023-05-10T04:19:42;100801.25;;;16.43;51.74
47742;BME280;33504;52.066;6.096;2023-05-10T04:22:10;100798.30;;;16.14;51.69
47742;BME280;33504;52.066;6.096;2023-05-10T04:24:37;100794.99;;;16.36;51.63
47742;BME280;33504;52.066;6.096;2023-05-10T04:27:03;100794.39;;;16.33;51.54
47742;BME280;33504;52.066;6.096;2023-05-10T04:29:30;100797.27;;;16.31;51.47
47742;BME280;33504;52.066;6.096;2023-05-10T04:31:57;100800.47;;;16.19;51.61
47742;BME280;33504;52.066;6.096;2023-05-10T04:34:24;100799.53;;;15.98;51.44
47742;BME280;33504;52.066;6.096;2023-05-10T04:36:51;100800.88;;;16.13;51.44
47742;BME280;33504;52.066;6.096;2023-05-10T04:39:18;100806.39;;;16.19;51.39
47742;BME280;33504;52.066;6.096;2023-05-10T04:41:45;100806.83;;;16.05;51.61
47742;BME280;33504;52.066;6.096;2023-05-10T04:44:12;100807.32;;;16.05;51.47
47742;BME280;33504;52.066;6.096;2023-05-10T04:46:38;100808.85;;;16.04;51.59
47742;BME280;33504;52.066;6.096;2023-05-10T04:49:06;100814.51;;;16.00;51.56
47742;BME280;33504;52.066;6.096;2023-05-10T04:51:33;100819.89;;;15.95;51.56
47742;BME280;33504;52.066;6.096;2023-05-10T04:54:00;100819.77;;;15.72;51.82
47742;BME280;33504;52.066;6.096;2023-05-10T04:56:27;100822.77;;;15.88;51.69
47742;BME280;33504;52.066;6.096;2023-05-10T04:58:54;100822.92;;;15.85;51.72
47742;BME280;33504;52.066;6.096;2023-05-10T05:01:21;100821.74;;;15.71;51.91
47742;BME280;33504;52.066;6.096;2023-05-10T05:03:48;100817.53;;;15.89;51.78
47742;BME280;33504;52.066;6.096;2023-05-10T05:06:15;100820.07;;;15.85;52.00
47742;BME280;33504;52.066;6.096;2023-05-10T05:08:42;100819.28;;;15.81;52.26
47742;BME280;33504;52.066;6.096;2023-05-10T05:11:09;100819.91;;;15.55;52.10
47742;BME280;33504;52.066;6.096;2023-05-10T05:13:36;100822.17;;;15.51;52.21
47742;BME280;33504;52.066;6.096;2023-05-10T05:16:04;100818.84;;;15.56;52.18
47742;BME280;33504;52.066;6.096;2023-05-10T05:18:31;100821.02;;;15.32;52.54
47742;BME280;33504;52.066;6.096;2023-05-10T05:20:59;100823.55;;;15.32;52.49
47742;BME280;33504;52.066;6.096;2023-05-10T05:23:26;100825.92;;;15.46;52.77
47742;BME280;33504;52.066;6.096;2023-05-10T05:25:54;100829.36;;;15.88;52.55
47742;BME280;33504;52.066;6.096;2023-05-10T05:28:21;100829.93;;;15.67;52.66
47742;BME280;33504;52.066;6.096;2023-05-10T05:30:48;100832.76;;;15.83;52.68
47742;BME280;33504;52.066;6.096;2023-05-10T05:33:15;100837.45;;;15.90;52.54
47742;BME280;33504;52.066;6.096;2023-05-10T05:35:42;100834.76;;;15.75;52.49
47742;BME280;33504;52.066;6.096;2023-05-10T05:38:09;100837.06;;;15.60;52.22
47742;BME280;33504;52.066;6.096;2023-05-10T05:40:36;100839.85;;;15.60;52.61
47742;BME280;33504;52.066;6.096;2023-05-10T05:43:03;100841.09;;;16.18;52.47
47742;BME280;33504;52.066;6.096;2023-05-10T05:45:30;100839.94;;;15.65;52.48
47742;BME280;33504;52.066;6.096;2023-05-10T05:47:57;100840.50;;;15.76;52.32
47742;BME280;33504;52.066;6.096;2023-05-10T05:50:24;100843.14;;;15.86;52.16
47742;BME280;33504;52.066;6.096;2023-05-10T05:52:51;100842.84;;;15.84;51.69
47742;BME280;33504;52.066;6.096;2023-05-10T05:55:18;100844.51;;;15.92;52.01
47742;BME280;33504;52.066;6.096;2023-05-10T05:57:45;100844.50;;;16.04;51.96
47742;BME280;33504;52.066;6.096;2023-05-10T06:00:13;100844.19;;;16.07;52.06
47742;BME280;33504;52.066;6.096;2023-05-10T06:02:40;100848.27;;;16.22;51.88
47742;BME280;33504;52.066;6.096;2023-05-10T06:05:08;100844.50;;;16.29;51.83
47742;BME280;33504;52.066;6.096;2023-05-10T06:07:35;100852.13;;;15.99;52.16
47742;BME280;33504;52.066;6.096;2023-05-10T06:10:03;100852.71;;;16.30;51.89
47742;BME280;33504;52.066;6.096;2023-05-10T06:12:30;100850.07;;;16.24;52.13
47742;BME280;33504;52.066;6.096;2023-05-10T06:14:57;100850.20;;;16.21;51.67
47742;BME280;33504;52.066;6.096;2023-05-10T06:17:24;100853.92;;;16.27;51.92
47742;BME280;33504;52.066;6.096;2023-05-10T06:19:51;100856.64;;;16.14;51.98
47742;BME280;33504;52.066;6.096;2023-05-10T06:22:18;100859.23;;;16.38;52.22
47742;BME280;33504;52.066;6.096;2023-05-10T06:24:46;100862.59;;;16.42;51.83
47742;BME280;33504;52.066;6.096;2023-05-10T06:27:13;100862.30;;;16.50;51.77
47742;BME280;33504;52.066;6.096;2023-05-10T06:29:40;100860.94;;;16.50;51.66
47742;BME280;33504;52.066;6.096;2023-05-10T06:32:07;100861.43;;;16.43;51.34
47742;BME280;33504;52.066;6.096;2023-05-10T06:34:34;100866.24;;;16.81;51.46
47742;BME280;33504;52.066;6.096;2023-05-10T06:37:02;100870.47;;;16.97;51.45
47742;BME280;33504;52.066;6.096;2023-05-10T06:39:29;100875.24;;;16.66;51.48
47742;BME280;33504;52.066;6.096;2023-05-10T06:41:56;100877.30;;;16.79;51.51
47742;BME280;33504;52.066;6.096;2023-05-10T06:44:23;100881.99;;;16.92;51.34
47742;BME280;33504;52.066;6.096;2023-05-10T06:46:50;100883.38;;;16.75;51.32
47742;BME280;33504;52.066;6.096;2023-05-10T06:49:18;100878.08;;;16.68;51.31
47742;BME280;33504;52.066;6.096;2023-05-10T06:51:44;100883.51;;;16.74;51.25
47742;BME280;33504;52.066;6.096;2023-05-10T06:54:12;100887.16;;;16.41;51.55
47742;BME280;33504;52.066;6.096;2023-05-10T06:56:39;100888.18;;;16.50;51.25
47742;BME280;33504;52.066;6.096;2023-05-10T06:59:06;100892.24;;;16.64;51.55
47742;BME280;33504;52.066;6.096;2023-05-10T07:01:33;100892.05;;;16.15;51.72
47742;BME280;33504;52.066;6.096;2023-05-10T07:03:59;100894.27;;;16.44;51.56
47742;BME280;33504;52.066;6.096;2023-05-10T07:06:26;100888.37;;;16.43;51.25
47742;BME280;33504;52.066;6.096;2023-05-10T07:08:53;100889.27;;;16.76;51.16
47742;BME280;33504;52.066;6.096;2023-05-10T07:11:21;100892.04;;;16.50;51.27
47742;BME280;33504;52.066;6.096;2023-05-10T07:13:48;100897.27;;;16.52;51.22
47742;BME280;33504;52.066;6.096;2023-05-10T07:16:15;100899.94;;;16.37;51.27
47742;BME280;33504;52.066;6.096;2023-05-10T07:18:42;100901.76;;;16.51;51.72
47742;BME280;33504;52.066;6.096;2023-05-10T07:21:09;100910.66;;;16.49;51.93
47742;BME280;33504;52.066;6.096;2023-05-10T07:23:36;100912.93;;;16.48;51.96
47742;BME280;33504;52.066;6.096;2023-05-10T07:26:03;100913.82;;;16.65;51.74
47742;BME280;33504;52.066;6.096;2023-05-10T07:28:30;100916.74;;;16.55;51.88
47742;BME280;33504;52.066;6.096;2023-05-10T07:30:57;100916.56;;;16.61;52.16
47742;BME280;33504;52.066;6.096;2023-05-10T07:33:24;100917.05;;;17.08;51.75
47742;BME280;33504;52.066;6.096;2023-05-10T07:35:51;100921.95;;;16.90;51.78
47742;BME280;33504;52.066;6.096;2023-05-10T07:38:18;100923.89;;;17.04;51.51
47742;BME280;33504;52.066;6.096;2023-05-10T07:40:45;100924.73;;;16.88;51.31
47742;BME280;33504;52.066;6.096;2023-05-10T07:43:12;100925.29;;;17.20;51.22
47742;BME280;33504;52.066;6.096;2023-05-10T07:45:39;100922.74;;;17.07;51.17
47742;BME280;33504;52.066;6.096;2023-05-10T07:48:06;100921.61;;;17.20;51.11
47742;BME280;33504;52.066;6.096;2023-05-10T07:50:33;100927.45;;;17.27;51.17
47742;BME280;33504;52.066;6.096;2023-05-10T07:53:01;100927.09;;;17.19;51.16
47742;BME280;33504;52.066;6.096;2023-05-10T07:55:28;100930.50;;;17.54;50.88
47742;BME280;33504;52.066;6.096;2023-05-10T07:57:55;100931.72;;;17.24;50.69
47742;BME280;33504;52.066;6.096;2023-05-10T08:00:22;100937.18;;;17.55;50.44
47742;BME280;33504;52.066;6.096;2023-05-10T08:02:49;100937.83;;;17.34;50.47
47742;BME280;33504;52.066;6.096;2023-05-10T08:05:16;100939.12;;;17.37;50.65
47742;BME280;33504;52.066;6.096;2023-05-10T08:07:43;100938.20;;;17.33;50.48
47742;BME280;33504;52.066;6.096;2023-05-10T08:10:10;100939.51;;;17.38;50.74
47742;BME280;33504;52.066;6.096;2023-05-10T08:12:37;100942.23;;;17.46;50.65
47742;BME280;33504;52.066;6.096;2023-05-10T08:15:05;100943.49;;;17.54;50.49
47742;BME280;33504;52.066;6.096;2023-05-10T08:17:32;100943.54;;;17.45;49.93
47742;BME280;33504;52.066;6.096;2023-05-10T08:20:00;100947.57;;;17.32;49.98
47742;BME280;33504;52.066;6.096;2023-05-10T08:22:27;100943.86;;;17.29;50.11
47742;BME280;33504;52.066;6.096;2023-05-10T08:24:54;100943.81;;;17.42;50.16
47742;BME280;33504;52.066;6.096;2023-05-10T08:27:21;100946.86;;;17.25;50.55
47742;BME280;33504;52.066;6.096;2023-05-10T08:29:48;100945.47;;;17.62;50.20
47742;BME280;33504;52.066;6.096;2023-05-10T08:32:15;100947.72;;;17.76;50.19
47742;BME280;33504;52.066;6.096;2023-05-10T08:34:42;100951.97;;;17.55;49.98
47742;BME280;33504;52.066;6.096;2023-05-10T08:37:09;100954.98;;;17.46;49.85
47742;BME280;33504;52.066;6.096;2023-05-10T08:39:36;100961.46;;;17.56;49.73
47742;BME280;33504;52.066;6.096;2023-05-10T08:42:04;100967.79;;;17.42;49.64
47742;BME280;33504;52.066;6.096;2023-05-10T08:44:34;100969.48;;;17.16;49.46
47742;BME280;33504;52.066;6.096;2023-05-10T08:47:05;100975.17;;;17.33;49.63
47742;BME280;33504;52.066;6.096;2023-05-10T08:49:32;100978.82;;;17.34;49.67
47742;BME280;33504;52.066;6.096;2023-05-10T08:52:02;100981.66;;;17.61;49.83
47742;BME280;33504;52.066;6.096;2023-05-10T08:54:31;100985.63;;;17.31;49.76
47742;BME280;33504;52.066;6.096;2023-05-10T08:56:58;100987.11;;;17.37;49.80
47742;BME280;33504;52.066;6.096;2023-05-10T08:59:26;100990.47;;;17.46;49.85
47742;BME280;33504;52.066;6.096;2023-05-10T09:01:56;100994.38;;;17.35;49.73
47742;BME280;33504;52.066;6.096;2023-05-10T09:04:24;100994.85;;;17.58;49.37
47742;BME280;33504;52.066;6.096;2023-05-10T09:06:51;100995.40;;;17.61;49.63
47742;BME280;33504;52.066;6.096;2023-05-10T09:09:19;101000.00;;;17.45;49.58
47742;BME280;33504;52.066;6.096;2023-05-10T09:11:47;100999.65;;;17.81;49.59
47742;BME280;33504;52.066;6.096;2023-05-10T09:14:15;101007.83;;;17.48;49.76
47742;BME280;33504;52.066;6.096;2023-05-10T09:16:43;101011.02;;;17.57;49.09
47742;BME280;33504;52.066;6.096;2023-05-10T09:19:10;101018.42;;;17.08;48.98
47742;BME280;33504;52.066;6.096;2023-05-10T09:21:38;101020.82;;;17.34;48.64
47742;BME280;33504;52.066;6.096;2023-05-10T09:24:06;101025.85;;;17.31;48.57
47742;BME280;33504;52.066;6.096;2023-05-10T09:26:33;101028.27;;;17.29;48.70
47742;BME280;33504;52.066;6.096;2023-05-10T09:29:01;101025.86;;;17.43;48.80
47742;BME280;33504;52.066;6.096;2023-05-10T09:31:48;101028.51;;;17.55;48.81
47742;BME280;33504;52.066;6.096;2023-05-10T09:34:17;101027.82;;;17.62;48.91
47742;BME280;33504;52.066;6.096;2023-05-10T09:36:53;101031.87;;;17.89;48.13
47742;BME280;33504;52.066;6.096;2023-05-10T09:39:20;101030.92;;;17.87;48.11
47742;BME280;33504;52.066;6.096;2023-05-10T09:41:57;101037.50;;;18.16;47.93
47742;BME280;33504;52.066;6.096;2023-05-10T09:44:25;101040.68;;;18.05;47.73
47742;BME280;33504;52.066;6.096;2023-05-10T09:46:53;101049.52;;;17.46;46.98
47742;BME280;33504;52.066;6.096;2023-05-10T09:49:20;101052.28;;;17.40;47.15
47742;BME280;33504;52.066;6.096;2023-05-10T09:51:50;101049.72;;;17.76;47.27
47742;BME280;33504;52.066;6.096;2023-05-10T09:54:26;101048.74;;;17.92;47.51
47742;BME280;33504;52.066;6.096;2023-05-10T09:56:53;101052.01;;;17.93;46.95
47742;BME280;33504;52.066;6.096;2023-05-10T09:59:20;101050.47;;;17.65;47.00
47742;BME280;33504;52.066;6.096;2023-05-10T10:01:50;101050.53;;;18.29;47.22
47742;BME280;33504;52.066;6.096;2023-05-10T10:04:17;101051.44;;;18.04;46.84
47742;BME280;33504;52.066;6.096;2023-05-10T10:06:47;101045.96;;;18.77;46.10
47742;BME280;33504;52.066;6.096;2023-05-10T10:09:25;101050.26;;;18.85;45.84
47742;BME280;33504;52.066;6.096;2023-05-10T10:11:52;101050.35;;;19.09;46.00
47742;BME280;33504;52.066;6.096;2023-05-10T10:14:21;101050.15;;;19.31;45.65
47742;BME280;33504;52.066;6.096;2023-05-10T10:16:49;101052.34;;;19.30;45.19
47742;BME280;33504;52.066;6.096;2023-05-10T10:19:17;101053.75;;;19.04;45.21
47742;BME280;33504;52.066;6.096;2023-05-10T10:21:44;101056.74;;;19.21;45.48
47742;BME280;33504;52.066;6.096;2023-05-10T10:24:11;101055.74;;;19.23;44.36
47742;BME280;33504;52.066;6.096;2023-05-10T10:26:38;101059.05;;;19.33;43.88
47742;BME280;33504;52.066;6.096;2023-05-10T10:29:20;101060.17;;;19.36;43.76
47742;BME280;33504;52.066;6.096;2023-05-10T10:31:54;101058.72;;;19.36;43.17
47742;BME280;33504;52.066;6.096;2023-05-10T10:34:26;101058.83;;;19.48;42.97
47742;BME280;33504;52.066;6.096;2023-05-10T10:36:55;101061.43;;;19.26;43.28
47742;BME280;33504;52.066;6.096;2023-05-10T10:39:23;101064.58;;;19.30;43.73
47742;BME280;33504;52.066;6.096;2023-05-10T10:41:52;101062.90;;;19.24;43.13
47742;BME280;33504;52.066;6.096;2023-05-10T10:44:25;101065.99;;;18.88;42.99
47742;BME280;33504;52.066;6.096;2023-05-10T10:47:02;101060.31;;;18.86;43.50
47742;BME280;33504;52.066;6.096;2023-05-10T10:49:31;101065.20;;;18.91;43.77
47742;BME280;33504;52.066;6.096;2023-05-10T10:52:18;101067.19;;;18.42;43.07
47742;BME280;33504;52.066;6.096;2023-05-10T10:54:50;101071.89;;;18.59;43.49
47742;BME280;33504;52.066;6.096;2023-05-10T10:57:19;101070.43;;;18.14;43.80
47742;BME280;33504;52.066;6.096;2023-05-10T10:59:46;101069.12;;;18.62;43.91
47742;BME280;33504;52.066;6.096;2023-05-10T11:02:33;101069.75;;;18.31;43.51
47742;BME280;33504;52.066;6.096;2023-05-10T11:05:00;101070.23;;;18.29;43.46
47742;BME280;33504;52.066;6.096;2023-05-10T11:07:27;101071.15;;;18.64;43.33
47742;BME280;33504;52.066;6.096;2023-05-10T11:09:54;101074.73;;;18.29;43.77
47742;BME280;33504;52.066;6.096;2023-05-10T11:12:20;101073.50;;;18.52;44.25
47742;BME280;33504;52.066;6.096;2023-05-10T11:14:50;101076.20;;;18.63;44.37
47742;BME280;33504;52.066;6.096;2023-05-10T11:17:24;101079.66;;;18.36;43.83
47742;BME280;33504;52.066;6.096;2023-05-10T11:20:10;101080.57;;;18.38;43.52
47742;BME280;33504;52.066;6.096;2023-05-10T11:22:53;101081.87;;;18.93;43.43
47742;BME280;33504;52.066;6.096;2023-05-10T11:25:26;101082.25;;;19.12;42.79
47742;BME280;33504;52.066;6.096;2023-05-10T11:27:53;101082.31;;;19.01;42.87
47742;BME280;33504;52.066;6.096;2023-05-10T11:30:20;101083.81;;;19.26;43.28
47742;BME280;33504;52.066;6.096;2023-05-10T11:32:47;101083.74;;;19.35;43.38
47742;BME280;33504;52.066;6.096;2023-05-10T11:35:15;101082.65;;;20.07;42.85
47742;BME280;33504;52.066;6.096;2023-05-10T11:37:42;101083.14;;;20.70;42.32
47742;BME280;33504;52.066;6.096;2023-05-10T11:40:10;101081.42;;;20.82;40.59
47742;BME280;33504;52.066;6.096;2023-05-10T11:42:37;101079.63;;;21.19;39.00
47742;BME280;33504;52.066;6.096;2023-05-10T11:45:06;101078.65;;;21.00;38.32
47742;BME280;33504;52.066;6.096;2023-05-10T11:47:33;101077.14;;;21.38;37.22
47742;BME280;33504;52.066;6.096;2023-05-10T11:50:00;101077.75;;;20.83;37.17
47742;BME280;33504;52.066;6.096;2023-05-10T11:52:28;101080.44;;;20.84;38.24
47742;BME280;33504;52.066;6.096;2023-05-10T11:54:55;101079.44;;;20.63;39.47
47742;BME280;33504;52.066;6.096;2023-05-10T11:57:27;101079.64;;;20.44;39.23
47742;BME280;33504;52.066;6.096;2023-05-10T11:59:54;101078.89;;;20.08;39.49
47742;BME280;33504;52.066;6.096;2023-05-10T12:02:21;101080.44;;;19.98;39.47
47742;BME280;33504;52.066;6.096;2023-05-10T12:04:49;101084.86;;;19.85;39.64
47742;BME280;33504;52.066;6.096;2023-05-10T12:07:16;101082.23;;;20.20;39.53
47742;BME280;33504;52.066;6.096;2023-05-10T12:09:44;101083.16;;;20.17;40.26
47742;BME280;33504;52.066;6.096;2023-05-10T12:12:16;101086.16;;;19.97;39.72
47742;BME280;33504;52.066;6.096;2023-05-10T12:14:43;101089.13;;;20.27;39.45
47742;BME280;33504;52.066;6.096;2023-05-10T12:17:11;101087.86;;;20.49;40.00
47742;BME280;33504;52.066;6.096;2023-05-10T12:19:39;101092.36;;;20.63;39.04
47742;BME280;33504;52.066;6.096;2023-05-10T12:22:07;101091.41;;;20.63;39.28
47742;BME280;33504;52.066;6.096;2023-05-10T12:24:34;101093.79;;;20.27;39.03
47742;BME280;33504;52.066;6.096;2023-05-10T12:27:04;101095.69;;;20.85;38.83
47742;BME280;33504;52.066;6.096;2023-05-10T12:29:32;101100.11;;;20.40;39.12
47742;BME280;33504;52.066;6.096;2023-05-10T12:32:00;101101.01;;;20.42;39.16
47742;BME280;33504;52.066;6.096;2023-05-10T12:34:30;101100.07;;;20.66;39.53
47742;BME280;33504;52.066;6.096;2023-05-10T12:36:57;101103.39;;;20.67;39.07
47742;BME280;33504;52.066;6.096;2023-05-10T12:39:24;101100.20;;;20.15;39.17
47742;BME280;33504;52.066;6.096;2023-05-10T12:41:51;101101.50;;;20.26;39.66
47742;BME280;33504;52.066;6.096;2023-05-10T12:44:18;101101.40;;;19.95;39.71
47742;BME280;33504;52.066;6.096;2023-05-10T12:46:46;101102.94;;;20.21;39.91
47742;BME280;33504;52.066;6.096;2023-05-10T12:49:13;101100.74;;;20.55;40.03
47742;BME280;33504;52.066;6.096;2023-05-10T12:51:39;101101.33;;;20.35;39.27
47742;BME280;33504;52.066;6.096;2023-05-10T12:54:07;101102.56;;;20.24;39.77
47742;BME280;33504;52.066;6.096;2023-05-10T12:56:34;101103.04;;;20.71;39.91
47742;BME280;33504;52.066;6.096;2023-05-10T12:59:01;101107.00;;;20.70;39.46